KMLP

Mullan Pass Vor Airport

Mullan Pass, Idaho, USA
METAR KMLP 140353Z AUTO 21006KT 10SM CLR 00/M11 A3034 RMK AO2 SLP257 T00001106
Observed Flight Rules
Nov-14 @ 03:53 UTC (56 minutes ago) Visual Flight Rules
Wind Visibility Clouds
210° at 6 knots 10 miles
  • Clear skies
Temperatures Readings
Current 0°C / 32°F
Dewpoint -11°C / 12°F
Humidity 44%
Altimeter 30.34" Hg
Pressure 1025.7 hPa
Elevation 1837
METAR KMLP 140353Z AUTO 21006KT 10SM CLR 00/M11 A3034 RMK AO2 SLP257 T00001106
Observed Flight Rules
Nov-14 @ 03:53 UTC
(56 minutes ago)
VFR
Wind Visibility
210° at 6 knots 10 miles
Clouds
  • Clear skies
Temperature Dewpoint
0°C / 32°F -11°C / 12°F
Humidity Altimeter Pressure
44% 30.34" Hg 1025.7 hPa